sensor_id;sensor_type;location;lat;lon;timestamp;temperature;humidity
12289;DHT22;6207;49.308;7.336;2022-08-18T00:01:32;20.70;1.00
12289;DHT22;6207;49.308;7.336;2022-08-18T00:03:59;20.60;24.20
12289;DHT22;6207;49.308;7.336;2022-08-18T00:06:34;20.50;34.50
12289;DHT22;6207;49.308;7.336;2022-08-18T00:09:04;20.50;99.90
12289;DHT22;6207;49.308;7.336;2022-08-18T00:11:35;20.50;94.60
12289;DHT22;6207;49.308;7.336;2022-08-18T00:14:19;20.90;1.00
12289;DHT22;6207;49.308;7.336;2022-08-18T00:16:51;21.30;99.90
12289;DHT22;6207;49.308;7.336;2022-08-18T00:19:18;21.50;99.90
12289;DHT22;6207;49.308;7.336;2022-08-18T00:21:45;21.60;99.90
12289;DHT22;6207;49.308;7.336;2022-08-18T00:24:11;21.80;99.90
12289;DHT22;6207;49.308;7.336;2022-08-18T00:26:38;21.60;1.00
12289;DHT22;6207;49.308;7.336;2022-08-18T00:29:06;21.60;1.00
12289;DHT22;6207;49.308;7.336;2022-08-18T00:31:33;21.60;1.00
12289;DHT22;6207;49.308;7.336;2022-08-18T00:34:00;21.50;1.00
12289;DHT22;6207;49.308;7.336;2022-08-18T00:36:27;21.40;1.00
12289;DHT22;6207;49.308;7.336;2022-08-18T00:38:54;21.50;1.00
12289;DHT22;6207;49.308;7.336;2022-08-18T00:41:21;21.30;1.00
12289;DHT22;6207;49.308;7.336;2022-08-18T00:43:52;21.40;1.00
12289;DHT22;6207;49.308;7.336;2022-08-18T00:46:23;21.20;1.00
12289;DHT22;6207;49.308;7.336;2022-08-18T00:48:51;21.20;1.00
12289;DHT22;6207;49.308;7.336;2022-08-18T00:51:38;21.20;1.00
12289;DHT22;6207;49.308;7.336;2022-08-18T00:54:12;21.20;1.00
12289;DHT22;6207;49.308;7.336;2022-08-18T00:56:44;21.20;1.00
12289;DHT22;6207;49.308;7.336;2022-08-18T00:59:35;21.20;1.00
12289;DHT22;6207;49.308;7.336;2022-08-18T01:02:05;21.00;1.00
12289;DHT22;6207;49.308;7.336;2022-08-18T01:04:52;20.80;1.00
12289;DHT22;6207;49.308;7.336;2022-08-18T01:07:35;20.90;1.00
12289;DHT22;6207;49.308;7.336;2022-08-18T01:10:03;20.90;1.00
12289;DHT22;6207;49.308;7.336;2022-08-18T01:12:31;20.90;1.00
12289;DHT22;6207;49.308;7.336;2022-08-18T01:15:13;20.80;1.00
12289;DHT22;6207;49.308;7.336;2022-08-18T01:18:02;20.80;1.00
12289;DHT22;6207;49.308;7.336;2022-08-18T01:21:04;20.80;8.90
12289;DHT22;6207;49.308;7.336;2022-08-18T01:23:55;20.80;1.00
12289;DHT22;6207;49.308;7.336;2022-08-18T01:26:24;20.80;1.00
12289;DHT22;6207;49.308;7.336;2022-08-18T01:28:52;20.70;1.00
12289;DHT22;6207;49.308;7.336;2022-08-18T01:31:34;20.60;51.00
12289;DHT22;6207;49.308;7.336;2022-08-18T01:34:04;20.60;1.00
12289;DHT22;6207;49.308;7.336;2022-08-18T01:36:33;20.60;88.80
12289;DHT22;6207;49.308;7.336;2022-08-18T01:39:05;20.50;62.20
12289;DHT22;6207;49.308;7.336;2022-08-18T01:41:32;20.50;99.90
12289;DHT22;6207;49.308;7.336;2022-08-18T01:44:00;20.80;99.90
12289;DHT22;6207;49.308;7.336;2022-08-18T01:46:30;20.40;99.90
12289;DHT22;6207;49.308;7.336;2022-08-18T01:48:59;20.40;99.90
12289;DHT22;6207;49.308;7.336;2022-08-18T01:51:28;20.50;99.90
12289;DHT22;6207;49.308;7.336;2022-08-18T01:54:06;20.40;99.90
12289;DHT22;6207;49.308;7.336;2022-08-18T01:56:33;20.30;99.90
12289;DHT22;6207;49.308;7.336;2022-08-18T01:59:02;20.30;99.90
12289;DHT22;6207;49.308;7.336;2022-08-18T02:01:29;20.30;99.90
12289;DHT22;6207;49.308;7.336;2022-08-18T02:04:03;20.30;99.90
12289;DHT22;6207;49.308;7.336;2022-08-18T02:06:52;20.30;99.90
12289;DHT22;6207;49.308;7.336;2022-08-18T02:09:19;20.30;99.90
12289;DHT22;6207;49.308;7.336;2022-08-18T02:11:50;20.20;1.00
12289;DHT22;6207;49.308;7.336;2022-08-18T02:14:22;20.10;1.00
12289;DHT22;6207;49.308;7.336;2022-08-18T02:16:55;20.00;1.00
12289;DHT22;6207;49.308;7.336;2022-08-18T02:19:34;20.20;1.00
12289;DHT22;6207;49.308;7.336;2022-08-18T02:22:03;20.00;1.00
12289;DHT22;6207;49.308;7.336;2022-08-18T02:24:29;20.00;1.00
12289;DHT22;6207;49.308;7.336;2022-08-18T02:26:56;19.90;1.00
12289;DHT22;6207;49.308;7.336;2022-08-18T02:29:23;19.90;1.00
12289;DHT22;6207;49.308;7.336;2022-08-18T02:31:50;19.80;15.10
12289;DHT22;6207;49.308;7.336;2022-08-18T02:34:17;19.70;99.90
12289;DHT22;6207;49.308;7.336;2022-08-18T02:36:44;19.60;99.90
12289;DHT22;6207;49.308;7.336;2022-08-18T02:39:11;19.40;99.90
12289;DHT22;6207;49.308;7.336;2022-08-18T02:41:38;19.20;99.90
12289;DHT22;6207;49.308;7.336;2022-08-18T02:44:06;19.10;99.90
12289;DHT22;6207;49.308;7.336;2022-08-18T02:46:34;19.20;99.90
12289;DHT22;6207;49.308;7.336;2022-08-18T02:49:01;19.00;99.90
12289;DHT22;6207;49.308;7.336;2022-08-18T02:51:28;19.00;99.90
12289;DHT22;6207;49.308;7.336;2022-08-18T02:53:56;18.90;99.90
12289;DHT22;6207;49.308;7.336;2022-08-18T02:56:30;18.90;99.90
12289;DHT22;6207;49.308;7.336;2022-08-18T02:59:13;19.00;99.90
12289;DHT22;6207;49.308;7.336;2022-08-18T03:01:43;18.90;99.90
12289;DHT22;6207;49.308;7.336;2022-08-18T03:04:14;18.90;99.90
12289;DHT22;6207;49.308;7.336;2022-08-18T03:06:42;18.90;99.90
12289;DHT22;6207;49.308;7.336;2022-08-18T03:09:12;18.90;99.90
12289;DHT22;6207;49.308;7.336;2022-08-18T03:11:40;18.80;99.90
12289;DHT22;6207;49.308;7.336;2022-08-18T03:14:09;18.80;99.90
12289;DHT22;6207;49.308;7.336;2022-08-18T03:16:39;18.90;99.90
12289;DHT22;6207;49.308;7.336;2022-08-18T03:19:24;18.80;99.90
12289;DHT22;6207;49.308;7.336;2022-08-18T03:21:51;18.80;99.90
12289;DHT22;6207;49.308;7.336;2022-08-18T03:24:18;18.80;99.90
12289;DHT22;6207;49.308;7.336;2022-08-18T03:26:50;18.80;99.90
12289;DHT22;6207;49.308;7.336;2022-08-18T03:29:18;18.80;99.90
12289;DHT22;6207;49.308;7.336;2022-08-18T03:31:46;18.90;99.90
12289;DHT22;6207;49.308;7.336;2022-08-18T03:34:15;18.80;99.90
12289;DHT22;6207;49.308;7.336;2022-08-18T03:36:46;18.70;99.90
12289;DHT22;6207;49.308;7.336;2022-08-18T03:39:13;18.70;99.90
12289;DHT22;6207;49.308;7.336;2022-08-18T03:41:43;18.70;99.90
12289;DHT22;6207;49.308;7.336;2022-08-18T03:44:27;18.80;99.90
12289;DHT22;6207;49.308;7.336;2022-08-18T03:46:56;18.90;99.90
12289;DHT22;6207;49.308;7.336;2022-08-18T03:49:23;18.70;99.90
12289;DHT22;6207;49.308;7.336;2022-08-18T03:51:51;18.70;99.90
12289;DHT22;6207;49.308;7.336;2022-08-18T03:54:18;18.70;99.90
12289;DHT22;6207;49.308;7.336;2022-08-18T03:56:47;18.70;99.90
12289;DHT22;6207;49.308;7.336;2022-08-18T03:59:20;18.70;99.90
12289;DHT22;6207;49.308;7.336;2022-08-18T04:01:49;18.60;99.90
12289;DHT22;6207;49.308;7.336;2022-08-18T04:04:19;18.60;99.90
12289;DHT22;6207;49.308;7.336;2022-08-18T04:06:50;18.60;99.90
12289;DHT22;6207;49.308;7.336;2022-08-18T04:09:21;18.60;99.90
12289;DHT22;6207;49.308;7.336;2022-08-18T04:11:48;18.60;99.90
12289;DHT22;6207;49.308;7.336;2022-08-18T04:14:20;18.50;99.90
12289;DHT22;6207;49.308;7.336;2022-08-18T04:16:50;18.60;99.90
12289;DHT22;6207;49.308;7.336;2022-08-18T04:19:17;18.40;99.90
12289;DHT22;6207;49.308;7.336;2022-08-18T04:21:55;18.30;99.90
12289;DHT22;6207;49.308;7.336;2022-08-18T04:24:22;18.30;99.90
12289;DHT22;6207;49.308;7.336;2022-08-18T04:26:50;18.30;99.90
12289;DHT22;6207;49.308;7.336;2022-08-18T04:29:19;18.30;99.90
12289;DHT22;6207;49.308;7.336;2022-08-18T04:31:48;18.20;99.90
12289;DHT22;6207;49.308;7.336;2022-08-18T04:34:16;18.20;99.90
12289;DHT22;6207;49.308;7.336;2022-08-18T04:36:43;18.20;99.90
12289;DHT22;6207;49.308;7.336;2022-08-18T04:39:11;18.20;99.90
12289;DHT22;6207;49.308;7.336;2022-08-18T04:41:41;18.20;99.90
12289;DHT22;6207;49.308;7.336;2022-08-18T04:44:10;18.30;99.90
12289;DHT22;6207;49.308;7.336;2022-08-18T04:46:40;18.20;99.90
12289;DHT22;6207;49.308;7.336;2022-08-18T04:49:09;18.10;99.90
12289;DHT22;6207;49.308;7.336;2022-08-18T04:51:40;18.00;99.90
12289;DHT22;6207;49.308;7.336;2022-08-18T04:54:27;18.20;99.90
12289;DHT22;6207;49.308;7.336;2022-08-18T04:56:54;18.10;99.90
12289;DHT22;6207;49.308;7.336;2022-08-18T04:59:21;18.10;99.90
12289;DHT22;6207;49.308;7.336;2022-08-18T05:01:48;18.10;99.90
12289;DHT22;6207;49.308;7.336;2022-08-18T05:04:16;18.10;99.90
12289;DHT22;6207;49.308;7.336;2022-08-18T05:06:44;18.30;99.90
12289;DHT22;6207;49.308;7.336;2022-08-18T05:09:13;18.20;99.90
12289;DHT22;6207;49.308;7.336;2022-08-18T05:11:42;18.30;99.90
12289;DHT22;6207;49.308;7.336;2022-08-18T05:14:10;18.20;99.90
12289;DHT22;6207;49.308;7.336;2022-08-18T05:16:37;18.30;99.90
12289;DHT22;6207;49.308;7.336;2022-08-18T05:19:16;18.20;99.90
12289;DHT22;6207;49.308;7.336;2022-08-18T05:21:53;18.30;99.90
12289;DHT22;6207;49.308;7.336;2022-08-18T05:24:27;18.30;99.90
12289;DHT22;6207;49.308;7.336;2022-08-18T05:27:03;18.40;99.90
12289;DHT22;6207;49.308;7.336;2022-08-18T05:29:31;18.30;99.90
12289;DHT22;6207;49.308;7.336;2022-08-18T05:32:12;18.30;99.90
12289;DHT22;6207;49.308;7.336;2022-08-18T05:35:14;18.20;99.90
12289;DHT22;6207;49.308;7.336;2022-08-18T05:38:11;18.20;99.90
12289;DHT22;6207;49.308;7.336;2022-08-18T05:40:42;18.20;99.90
12289;DHT22;6207;49.308;7.336;2022-08-18T05:43:13;18.20;99.90
12289;DHT22;6207;49.308;7.336;2022-08-18T05:45:42;18.20;99.90
12289;DHT22;6207;49.308;7.336;2022-08-18T05:48:09;18.20;99.90
12289;DHT22;6207;49.308;7.336;2022-08-18T05:50:36;18.30;99.90
12289;DHT22;6207;49.308;7.336;2022-08-18T05:53:08;18.20;99.90
12289;DHT22;6207;49.308;7.336;2022-08-18T05:55:58;18.30;99.90
12289;DHT22;6207;49.308;7.336;2022-08-18T05:58:49;18.30;99.90
12289;DHT22;6207;49.308;7.336;2022-08-18T06:01:26;18.30;99.90
12289;DHT22;6207;49.308;7.336;2022-08-18T06:06:45;18.30;99.90
12289;DHT22;6207;49.308;7.336;2022-08-18T06:09:30;18.40;99.90
12289;DHT22;6207;49.308;7.336;2022-08-18T06:12:19;18.40;99.90
12289;DHT22;6207;49.308;7.336;2022-08-18T06:14:48;18.50;99.90
12289;DHT22;6207;49.308;7.336;2022-08-18T06:17:37;18.60;99.90
12289;DHT22;6207;49.308;7.336;2022-08-18T06:20:33;18.70;99.90
12289;DHT22;6207;49.308;7.336;2022-08-18T06:23:28;18.80;99.90
12289;DHT22;6207;49.308;7.336;2022-08-18T06:26:18;18.70;99.90
12289;DHT22;6207;49.308;7.336;2022-08-18T06:37:11;18.80;99.90
12289;DHT22;6207;49.308;7.336;2022-08-18T06:39:50;18.90;99.90
12289;DHT22;6207;49.308;7.336;2022-08-18T06:42:22;18.90;99.90
12289;DHT22;6207;49.308;7.336;2022-08-18T06:44:56;18.90;99.90
12289;DHT22;6207;49.308;7.336;2022-08-18T06:47:42;18.90;99.90
12289;DHT22;6207;49.308;7.336;2022-08-18T06:53:03;19.10;99.90
12289;DHT22;6207;49.308;7.336;2022-08-18T06:55:38;19.10;99.90
12289;DHT22;6207;49.308;7.336;2022-08-18T06:58:25;18.90;99.90
12289;DHT22;6207;49.308;7.336;2022-08-18T07:03:48;19.00;99.90
12289;DHT22;6207;49.308;7.336;2022-08-18T07:08:54;19.20;99.90
12289;DHT22;6207;49.308;7.336;2022-08-18T07:11:23;19.30;99.90
12289;DHT22;6207;49.308;7.336;2022-08-18T07:13:57;19.30;99.90
12289;DHT22;6207;49.308;7.336;2022-08-18T07:16:41;19.10;99.90
12289;DHT22;6207;49.308;7.336;2022-08-18T07:19:28;19.00;99.90
12289;DHT22;6207;49.308;7.336;2022-08-18T07:22:07;19.10;99.90
12289;DHT22;6207;49.308;7.336;2022-08-18T07:24:39;19.00;99.90
12289;DHT22;6207;49.308;7.336;2022-08-18T07:27:18;19.10;99.90
12289;DHT22;6207;49.308;7.336;2022-08-18T07:30:08;19.10;99.90
12289;DHT22;6207;49.308;7.336;2022-08-18T07:32:46;19.20;99.90
12289;DHT22;6207;49.308;7.336;2022-08-18T07:35:18;19.10;99.90
12289;DHT22;6207;49.308;7.336;2022-08-18T07:37:53;19.20;99.90
12289;DHT22;6207;49.308;7.336;2022-08-18T07:40:38;19.20;99.90
12289;DHT22;6207;49.308;7.336;2022-08-18T07:43:13;19.10;99.90
12289;DHT22;6207;49.308;7.336;2022-08-18T07:45:45;19.30;99.90
12289;DHT22;6207;49.308;7.336;2022-08-18T07:53:58;19.00;99.90
12289;DHT22;6207;49.308;7.336;2022-08-18T08:02:23;19.10;99.90
12289;DHT22;6207;49.308;7.336;2022-08-18T08:05:10;19.10;99.90
12289;DHT22;6207;49.308;7.336;2022-08-18T08:07:48;19.10;99.90
12289;DHT22;6207;49.308;7.336;2022-08-18T08:10:32;18.90;99.90
12289;DHT22;6207;49.308;7.336;2022-08-18T08:13:15;19.00;99.90
12289;DHT22;6207;49.308;7.336;2022-08-18T08:21:52;19.10;99.90
12289;DHT22;6207;49.308;7.336;2022-08-18T08:24:30;19.00;99.90
12289;DHT22;6207;49.308;7.336;2022-08-18T08:29:56;19.10;99.90
12289;DHT22;6207;49.308;7.336;2022-08-18T08:32:40;19.20;99.90
12289;DHT22;6207;49.308;7.336;2022-08-18T08:35:26;19.20;99.90
12289;DHT22;6207;49.308;7.336;2022-08-18T08:38:29;19.10;99.90
12289;DHT22;6207;49.308;7.336;2022-08-18T08:41:21;19.10;99.90
12289;DHT22;6207;49.308;7.336;2022-08-18T08:46:29;18.90;99.90
12289;DHT22;6207;49.308;7.336;2022-08-18T08:49:24;18.90;99.90
12289;DHT22;6207;49.308;7.336;2022-08-18T08:52:04;18.90;99.90
12289;DHT22;6207;49.308;7.336;2022-08-18T08:54:41;18.90;99.90
12289;DHT22;6207;49.308;7.336;2022-08-18T08:57:12;19.00;99.90
12289;DHT22;6207;49.308;7.336;2022-08-18T08:59:41;19.00;99.90
12289;DHT22;6207;49.308;7.336;2022-08-18T09:05:18;19.10;99.90
12289;DHT22;6207;49.308;7.336;2022-08-18T09:07:54;19.20;99.90
12289;DHT22;6207;49.308;7.336;2022-08-18T09:13:40;19.20;99.90
12289;DHT22;6207;49.308;7.336;2022-08-18T09:16:40;19.30;99.90
12289;DHT22;6207;49.308;7.336;2022-08-18T09:22:11;19.50;99.90
12289;DHT22;6207;49.308;7.336;2022-08-18T09:24:44;19.60;99.90
12289;DHT22;6207;49.308;7.336;2022-08-18T09:43:15;20.20;99.90
12289;DHT22;6207;49.308;7.336;2022-08-18T09:46:04;20.30;99.90
12289;DHT22;6207;49.308;7.336;2022-08-18T09:48:36;20.00;99.90
12289;DHT22;6207;49.308;7.336;2022-08-18T09:56:15;20.30;99.90
12289;DHT22;6207;49.308;7.336;2022-08-18T09:58:58;20.40;99.90
12289;DHT22;6207;49.308;7.336;2022-08-18T10:01:38;20.30;99.90
12289;DHT22;6207;49.308;7.336;2022-08-18T10:04:27;20.40;99.90
12289;DHT22;6207;49.308;7.336;2022-08-18T10:07:33;20.70;99.90
12289;DHT22;6207;49.308;7.336;2022-08-18T10:20:13;20.60;99.90
12289;DHT22;6207;49.308;7.336;2022-08-18T10:22:53;20.50;99.90
12289;DHT22;6207;49.308;7.336;2022-08-18T10:25:41;20.50;99.90
12289;DHT22;6207;49.308;7.336;2022-08-18T10:28:53;20.70;99.90
12289;DHT22;6207;49.308;7.336;2022-08-18T10:31:23;20.70;99.90
12289;DHT22;6207;49.308;7.336;2022-08-18T10:34:11;20.80;99.90
12289;DHT22;6207;49.308;7.336;2022-08-18T10:36:52;20.50;99.90
12289;DHT22;6207;49.308;7.336;2022-08-18T10:39:42;20.40;99.90
12289;DHT22;6207;49.308;7.336;2022-08-18T10:42:32;20.40;99.90
12289;DHT22;6207;49.308;7.336;2022-08-18T10:47:36;20.20;99.90
12289;DHT22;6207;49.308;7.336;2022-08-18T10:50:18;20.20;99.90
12289;DHT22;6207;49.308;7.336;2022-08-18T10:53:09;20.10;99.90
12289;DHT22;6207;49.308;7.336;2022-08-18T10:56:08;20.10;99.90
12289;DHT22;6207;49.308;7.336;2022-08-18T10:58:52;20.00;99.90
12289;DHT22;6207;49.308;7.336;2022-08-18T11:07:04;20.30;99.90
12289;DHT22;6207;49.308;7.336;2022-08-18T11:09:33;20.50;99.90
12289;DHT22;6207;49.308;7.336;2022-08-18T11:12:07;20.30;99.90
12289;DHT22;6207;49.308;7.336;2022-08-18T11:14:59;20.40;99.90
12289;DHT22;6207;49.308;7.336;2022-08-18T11:24:29;20.60;99.90
12289;DHT22;6207;49.308;7.336;2022-08-18T11:27:16;20.60;99.90
12289;DHT22;6207;49.308;7.336;2022-08-18T11:29:48;20.90;99.90
12289;DHT22;6207;49.308;7.336;2022-08-18T11:32:30;20.90;99.90
12289;DHT22;6207;49.308;7.336;2022-08-18T11:43:21;20.70;99.90
12289;DHT22;6207;49.308;7.336;2022-08-18T11:45:51;20.80;99.90
12289;DHT22;6207;49.308;7.336;2022-08-18T11:51:24;21.10;99.90
12289;DHT22;6207;49.308;7.336;2022-08-18T11:54:20;21.20;77.60
12289;DHT22;6207;49.308;7.336;2022-08-18T11:57:49;21.40;1.00
12289;DHT22;6207;49.308;7.336;2022-08-18T12:00:57;21.50;1.00
12289;DHT22;6207;49.308;7.336;2022-08-18T12:03:40;21.60;1.00
12289;DHT22;6207;49.308;7.336;2022-08-18T12:12:21;21.90;99.90
12289;DHT22;6207;49.308;7.336;2022-08-18T12:15:05;22.00;99.90
12289;DHT22;6207;49.308;7.336;2022-08-18T12:17:51;22.10;99.90
12289;DHT22;6207;49.308;7.336;2022-08-18T12:20:41;22.00;99.90
12289;DHT22;6207;49.308;7.336;2022-08-18T12:23:10;21.80;99.90
12289;DHT22;6207;49.308;7.336;2022-08-18T12:25:38;21.90;99.90
12289;DHT22;6207;49.308;7.336;2022-08-18T12:28:05;22.00;99.90
12289;DHT22;6207;49.308;7.336;2022-08-18T12:30:36;22.10;99.90
12289;DHT22;6207;49.308;7.336;2022-08-18T12:33:07;22.20;99.90
12289;DHT22;6207;49.308;7.336;2022-08-18T12:35:38;22.50;99.90
12289;DHT22;6207;49.308;7.336;2022-08-18T12:38:07;22.40;1.00
12289;DHT22;6207;49.308;7.336;2022-08-18T12:40:41;22.30;1.00
12289;DHT22;6207;49.308;7.336;2022-08-18T12:45:36;22.40;1.00
12289;DHT22;6207;49.308;7.336;2022-08-18T12:48:05;22.60;1.00
12289;DHT22;6207;49.308;7.336;2022-08-18T12:50:34;22.70;1.00
12289;DHT22;6207;49.308;7.336;2022-08-18T12:53:20;22.50;1.00
12289;DHT22;6207;49.308;7.336;2022-08-18T12:56:16;22.80;1.00
12289;DHT22;6207;49.308;7.336;2022-08-18T12:58:45;22.90;1.00
12289;DHT22;6207;49.308;7.336;2022-08-18T13:01:12;22.80;1.00
12289;DHT22;6207;49.308;7.336;2022-08-18T13:03:44;22.90;1.00
12289;DHT22;6207;49.308;7.336;2022-08-18T13:06:30;23.10;1.00
12289;DHT22;6207;49.308;7.336;2022-08-18T13:08:59;23.10;99.90
12289;DHT22;6207;49.308;7.336;2022-08-18T13:11:26;23.20;99.90
12289;DHT22;6207;49.308;7.336;2022-08-18T13:13:55;23.20;99.90
12289;DHT22;6207;49.308;7.336;2022-08-18T13:16:24;23.20;99.90
12289;DHT22;6207;49.308;7.336;2022-08-18T13:19:06;23.40;99.90
12289;DHT22;6207;49.308;7.336;2022-08-18T13:21:36;23.40;99.90
12289;DHT22;6207;49.308;7.336;2022-08-18T13:24:07;23.50;99.90
12289;DHT22;6207;49.308;7.336;2022-08-18T13:26:38;23.60;99.90
12289;DHT22;6207;49.308;7.336;2022-08-18T13:29:07;23.70;99.90
12289;DHT22;6207;49.308;7.336;2022-08-18T13:31:36;23.60;99.90
12289;DHT22;6207;49.308;7.336;2022-08-18T13:34:04;23.50;99.90
12289;DHT22;6207;49.308;7.336;2022-08-18T13:36:38;23.60;99.90
12289;DHT22;6207;49.308;7.336;2022-08-18T13:39:13;23.60;99.90
12289;DHT22;6207;49.308;7.336;2022-08-18T13:41:41;23.60;67.80
12289;DHT22;6207;49.308;7.336;2022-08-18T13:44:11;23.30;54.80
12289;DHT22;6207;49.308;7.336;2022-08-18T13:46:45;23.30;92.30
12289;DHT22;6207;49.308;7.336;2022-08-18T13:49:17;23.50;73.60
12289;DHT22;6207;49.308;7.336;2022-08-18T13:51:55;23.50;41.20
12289;DHT22;6207;49.308;7.336;2022-08-18T13:54:32;23.50;34.40
12289;DHT22;6207;49.308;7.336;2022-08-18T13:57:01;23.30;56.40
12289;DHT22;6207;49.308;7.336;2022-08-18T13:59:29;23.50;96.50
12289;DHT22;6207;49.308;7.336;2022-08-18T14:02:01;23.60;94.00
12289;DHT22;6207;49.308;7.336;2022-08-18T14:04:28;23.90;33.70
12289;DHT22;6207;49.308;7.336;2022-08-18T14:06:56;24.10;18.00
12289;DHT22;6207;49.308;7.336;2022-08-18T14:09:26;24.20;13.10
12289;DHT22;6207;49.308;7.336;2022-08-18T14:12:16;24.30;1.00
12289;DHT22;6207;49.308;7.336;2022-08-18T14:14:52;24.50;1.00
12289;DHT22;6207;49.308;7.336;2022-08-18T14:17:20;24.60;8.30
12289;DHT22;6207;49.308;7.336;2022-08-18T14:19:50;24.70;10.90
12289;DHT22;6207;49.308;7.336;2022-08-18T14:22:49;24.40;1.00
12289;DHT22;6207;49.308;7.336;2022-08-18T14:25:35;24.90;31.00
12289;DHT22;6207;49.308;7.336;2022-08-18T14:28:21;25.00;1.00
12289;DHT22;6207;49.308;7.336;2022-08-18T14:30:51;24.60;1.00
12289;DHT22;6207;49.308;7.336;2022-08-18T14:33:21;24.50;1.00
12289;DHT22;6207;49.308;7.336;2022-08-18T14:36:08;24.20;1.00
12289;DHT22;6207;49.308;7.336;2022-08-18T14:38:35;24.50;1.00
12289;DHT22;6207;49.308;7.336;2022-08-18T14:41:05;24.50;1.00
12289;DHT22;6207;49.308;7.336;2022-08-18T14:43:34;24.50;99.90
12289;DHT22;6207;49.308;7.336;2022-08-18T14:46:22;24.60;1.00
12289;DHT22;6207;49.308;7.336;2022-08-18T14:48:56;24.20;1.00
12289;DHT22;6207;49.308;7.336;2022-08-18T14:51:24;24.20;1.00
12289;DHT22;6207;49.308;7.336;2022-08-18T14:53:59;24.20;1.00
12289;DHT22;6207;49.308;7.336;2022-08-18T14:56:26;24.00;1.00
12289;DHT22;6207;49.308;7.336;2022-08-18T14:58:58;24.40;1.00
12289;DHT22;6207;49.308;7.336;2022-08-18T15:01:26;24.40;1.00
12289;DHT22;6207;49.308;7.336;2022-08-18T15:03:53;24.50;1.00
12289;DHT22;6207;49.308;7.336;2022-08-18T15:06:21;24.40;1.00
12289;DHT22;6207;49.308;7.336;2022-08-18T15:08:52;24.40;1.00
12289;DHT22;6207;49.308;7.336;2022-08-18T15:11:19;24.40;1.00
12289;DHT22;6207;49.308;7.336;2022-08-18T15:13:49;24.20;1.00
12289;DHT22;6207;49.308;7.336;2022-08-18T15:16:21;24.20;99.90
12289;DHT22;6207;49.308;7.336;2022-08-18T15:18:58;24.20;99.90
12289;DHT22;6207;49.308;7.336;2022-08-18T15:21:27;24.20;99.90
12289;DHT22;6207;49.308;7.336;2022-08-18T15:24:14;24.40;1.00
12289;DHT22;6207;49.308;7.336;2022-08-18T15:27:05;24.50;3.30
12289;DHT22;6207;49.308;7.336;2022-08-18T15:29:38;24.70;1.00
12289;DHT22;6207;49.308;7.336;2022-08-18T15:32:08;24.40;1.00
12289;DHT22;6207;49.308;7.336;2022-08-18T15:34:36;24.20;7.00
12289;DHT22;6207;49.308;7.336;2022-08-18T15:37:13;24.00;25.60
12289;DHT22;6207;49.308;7.336;2022-08-18T15:39:45;24.10;23.20
12289;DHT22;6207;49.308;7.336;2022-08-18T15:42:17;23.70;99.90
12289;DHT22;6207;49.308;7.336;2022-08-18T15:44:44;23.60;99.90
12289;DHT22;6207;49.308;7.336;2022-08-18T15:47:15;23.60;99.90
12289;DHT22;6207;49.308;7.336;2022-08-18T15:49:46;23.50;99.90
12289;DHT22;6207;49.308;7.336;2022-08-18T15:52:15;23.60;99.90
12289;DHT22;6207;49.308;7.336;2022-08-18T15:54:45;23.70;99.90
12289;DHT22;6207;49.308;7.336;2022-08-18T15:57:16;23.70;99.90
12289;DHT22;6207;49.308;7.336;2022-08-18T16:00:04;23.70;99.90
12289;DHT22;6207;49.308;7.336;2022-08-18T16:02:31;23.50;99.90
12289;DHT22;6207;49.308;7.336;2022-08-18T16:04:59;23.50;99.90
12289;DHT22;6207;49.308;7.336;2022-08-18T16:07:37;23.60;99.90
12289;DHT22;6207;49.308;7.336;2022-08-18T16:10:20;23.60;99.90
12289;DHT22;6207;49.308;7.336;2022-08-18T16:12:48;23.70;99.90
12289;DHT22;6207;49.308;7.336;2022-08-18T16:15:18;23.70;99.90
12289;DHT22;6207;49.308;7.336;2022-08-18T16:17:48;23.70;99.90
12289;DHT22;6207;49.308;7.336;2022-08-18T16:20:17;23.80;99.90
12289;DHT22;6207;49.308;7.336;2022-08-18T16:22:45;23.80;99.90
12289;DHT22;6207;49.308;7.336;2022-08-18T16:25:15;23.90;99.90
12289;DHT22;6207;49.308;7.336;2022-08-18T16:27:43;23.90;89.60
12289;DHT22;6207;49.308;7.336;2022-08-18T16:30:12;23.80;88.50
12289;DHT22;6207;49.308;7.336;2022-08-18T16:32:40;23.80;99.90
12289;DHT22;6207;49.308;7.336;2022-08-18T16:35:07;23.80;42.90
12289;DHT22;6207;49.308;7.336;2022-08-18T16:37:34;23.80;1.00
12289;DHT22;6207;49.308;7.336;2022-08-18T16:40:02;23.70;5.60
12289;DHT22;6207;49.308;7.336;2022-08-18T16:42:29;23.60;7.70
12289;DHT22;6207;49.308;7.336;2022-08-18T16:44:59;23.50;99.90
12289;DHT22;6207;49.308;7.336;2022-08-18T16:47:26;23.20;99.90
12289;DHT22;6207;49.308;7.336;2022-08-18T16:49:53;23.00;37.50
12289;DHT22;6207;49.308;7.336;2022-08-18T16:52:24;23.00;1.00
12289;DHT22;6207;49.308;7.336;2022-08-18T16:54:53;22.80;1.00
12289;DHT22;6207;49.308;7.336;2022-08-18T16:57:23;22.90;1.00
12289;DHT22;6207;49.308;7.336;2022-08-18T17:00:21;22.70;1.00
12289;DHT22;6207;49.308;7.336;2022-08-18T17:03:08;22.60;1.00
12289;DHT22;6207;49.308;7.336;2022-08-18T17:06:20;22.60;33.00
12289;DHT22;6207;49.308;7.336;2022-08-18T17:08:47;22.50;41.20
12289;DHT22;6207;49.308;7.336;2022-08-18T17:11:16;22.40;50.20
12289;DHT22;6207;49.308;7.336;2022-08-18T17:13:45;22.40;1.00
12289;DHT22;6207;49.308;7.336;2022-08-18T17:16:12;22.40;43.10
12289;DHT22;6207;49.308;7.336;2022-08-18T17:18:41;22.50;59.80
12289;DHT22;6207;49.308;7.336;2022-08-18T17:21:10;22.50;90.50
12289;DHT22;6207;49.308;7.336;2022-08-18T17:23:38;22.50;99.90
12289;DHT22;6207;49.308;7.336;2022-08-18T17:26:53;22.30;99.90
12289;DHT22;6207;49.308;7.336;2022-08-18T17:29:04;21.70;1.00
12289;DHT22;6207;49.308;7.336;2022-08-18T17:31:33;22.00;99.90
12289;DHT22;6207;49.308;7.336;2022-08-18T17:34:05;21.90;99.90
12289;DHT22;6207;49.308;7.336;2022-08-18T17:36:37;21.80;99.90
12289;DHT22;6207;49.308;7.336;2022-08-18T17:39:22;21.80;99.90
12289;DHT22;6207;49.308;7.336;2022-08-18T17:41:49;21.50;99.90
12289;DHT22;6207;49.308;7.336;2022-08-18T17:44:36;21.70;99.90
12289;DHT22;6207;49.308;7.336;2022-08-18T17:47:24;21.80;99.90
12289;DHT22;6207;49.308;7.336;2022-08-18T17:49:52;21.80;99.90
12289;DHT22;6207;49.308;7.336;2022-08-18T17:52:59;21.80;99.90
12289;DHT22;6207;49.308;7.336;2022-08-18T17:55:38;21.70;99.90
12289;DHT22;6207;49.308;7.336;2022-08-18T17:58:47;21.70;99.90
12289;DHT22;6207;49.308;7.336;2022-08-18T18:01:16;21.70;99.90
12289;DHT22;6207;49.308;7.336;2022-08-18T18:03:43;21.60;1.00
12289;DHT22;6207;49.308;7.336;2022-08-18T18:06:27;21.60;1.00
12289;DHT22;6207;49.308;7.336;2022-08-18T18:08:59;21.60;1.00
12289;DHT22;6207;49.308;7.336;2022-08-18T18:11:33;21.60;1.00
12289;DHT22;6207;49.308;7.336;2022-08-18T18:19:33;21.50;1.00
12289;DHT22;6207;49.308;7.336;2022-08-18T18:22:15;21.90;1.00
12289;DHT22;6207;49.308;7.336;2022-08-18T18:25:00;21.50;1.00
12289;DHT22;6207;49.308;7.336;2022-08-18T18:27:42;21.40;1.00
12289;DHT22;6207;49.308;7.336;2022-08-18T18:33:00;21.40;1.00
12289;DHT22;6207;49.308;7.336;2022-08-18T18:35:48;21.40;1.00
12289;DHT22;6207;49.308;7.336;2022-08-18T18:38:35;21.20;1.00
12289;DHT22;6207;49.308;7.336;2022-08-18T18:41:26;21.10;1.00
12289;DHT22;6207;49.308;7.336;2022-08-18T18:44:07;21.00;1.00
12289;DHT22;6207;49.308;7.336;2022-08-18T18:46:43;20.90;1.00